Freeport, New York
Current Conditions -  °F | °C
As of 3:51 AM on Saturday 25 Oct 2014 (Local Time) from KJFK Reporting Station
Scattered Clouds Scattered Clouds  
Wind Chill: 52°   Ceiling: Unl
Heat Index: 52°   Visibility: 10mi
Dew Point: 36°   Wind: 8mph
Humidity: 54%   Direction: 300°WNW
Pressure: 29.86"   Gusts: NA
Location:  40.66°N, 73.59°W
Report Text: KJFK 250751Z 30007KT 10SM SCT250 11/02 A2986 RMK AO2 SLP112 T01110022
Loading
Personal Weather Stations






























Interactive Weather Map
Tropical Storm Tracking
New forecast layout! Learn more

10-Day Weather Forecast

Advertisements
Track Severe Weather on mobile